createdAt,value
2023-02-13T00:04:04.545Z,43.1
2023-02-13T00:09:10.069Z,43.1
2023-02-13T00:14:31.825Z,43
2023-02-13T00:20:09.493Z,43
2023-02-13T00:25:47.017Z,42.9
2023-02-13T00:31:38.680Z,42.9
2023-02-13T00:37:17.050Z,42.8
2023-02-13T00:42:38.672Z,42.8
2023-02-13T00:48:16.116Z,42.8
2023-02-13T00:53:38.671Z,42.7
2023-02-13T00:59:15.266Z,42.7
2023-02-13T01:04:07.003Z,42.6
2023-02-13T01:09:29.233Z,42.6
2023-02-13T01:14:50.553Z,42.6
2023-02-13T01:20:27.287Z,42.5
2023-02-13T01:26:04.780Z,42.5
2023-02-13T01:31:42.703Z,42.4
2023-02-13T01:37:20.880Z,42.4
2023-02-13T01:42:58.792Z,42.4
2023-02-13T01:48:38.238Z,42.3
2023-02-13T01:54:14.723Z,42.3
2023-02-13T01:59:37.014Z,42.3
2023-02-13T02:05:15.010Z,42.2
2023-02-13T02:10:36.506Z,42.1
2023-02-13T02:16:13.689Z,42.1
2023-02-13T02:21:36.091Z,42
2023-02-13T02:27:12.897Z,42.6
2023-02-13T02:32:50.543Z,43.4
2023-02-13T02:38:27.259Z,44.4
2023-02-13T02:44:05.914Z,45.4
2023-02-13T02:49:43.942Z,46.4
2023-02-13T02:55:20.178Z,47.5
2023-02-13T03:00:57.983Z,48.4
2023-02-13T03:06:36.078Z,49.5
2023-02-13T03:12:13.478Z,50.5
2023-02-13T03:17:51.583Z,51.5
2023-02-13T03:23:28.090Z,52.6
2023-02-13T03:29:05.633Z,53.6
2023-02-13T03:34:43.663Z,54.2
2023-02-13T03:40:20.381Z,54.3
2023-02-13T03:45:57.552Z,54.3
2023-02-13T03:51:35.442Z,54.3
2023-02-13T03:57:12.331Z,54.3
2023-02-13T04:02:49.452Z,54.3
2023-02-13T04:08:26.691Z,54.2
2023-02-13T04:13:34.165Z,54.2
2023-02-13T04:19:11.424Z,54.1
2023-02-13T04:24:33.197Z,54.1
2023-02-13T04:30:11.092Z,54.1
2023-02-13T04:35:50.355Z,54.1
2023-02-13T04:41:27.739Z,54
2023-02-13T04:47:05.865Z,54
2023-02-13T04:52:42.925Z,53.9
2023-02-13T04:58:19.198Z,53.9
2023-02-13T05:03:41.586Z,53.9
2023-02-13T05:09:04.567Z,53.8
2023-02-13T05:14:42.927Z,53.8
2023-02-13T05:20:05.364Z,53.8
2023-02-13T05:25:43.074Z,53.8
2023-02-13T05:31:05.426Z,53.7
2023-02-13T05:36:28.581Z,53.6
2023-02-13T05:42:06.575Z,53.6
2023-02-13T05:47:44.913Z,53.6
2023-02-13T05:53:22.950Z,53.6
2023-02-13T05:59:01.036Z,53.5
2023-02-13T06:04:39.098Z,53.5
2023-02-13T06:10:00.386Z,53.4
2023-02-13T06:15:38.735Z,53.4
2023-02-13T06:21:16.947Z,53.4
2023-02-13T06:26:54.591Z,53.3
2023-02-13T06:32:32.816Z,53.3
2023-02-13T06:38:12.567Z,53.2
2023-02-13T06:43:34.338Z,53.1
2023-02-13T06:49:12.697Z,53.1
2023-02-13T06:54:46.619Z,53.1
2023-02-13T07:00:08.997Z,53.1
2023-02-13T07:05:49.188Z,53
2023-02-13T07:11:26.083Z,52.9
2023-02-13T07:17:03.007Z,52.9
2023-02-13T07:22:40.184Z,52.8
2023-02-13T07:28:02.288Z,52.7
2023-02-13T07:33:41.196Z,52.6
2023-02-13T07:39:31.849Z,52.6
2023-02-13T07:44:39.616Z,52.5
2023-02-13T07:50:17.445Z,52.5
2023-02-13T07:55:23.651Z,52.4
2023-02-13T08:00:47.262Z,52.4
2023-02-13T08:11:31.377Z,52.3
2023-02-13T08:17:09.668Z,52.3
2023-02-13T08:22:48.678Z,52.3
2023-02-13T08:28:27.206Z,52.2
2023-02-13T08:33:43.763Z,52.2
2023-02-13T08:39:21.291Z,52.1
2023-02-13T08:44:59.814Z,52.1
2023-02-13T08:50:38.614Z,52.1
2023-02-13T08:56:01.033Z,52
2023-02-13T09:07:02.022Z,51.9
2023-02-13T09:12:39.371Z,51.9
2023-02-13T09:18:17.814Z,51.8
2023-02-13T09:23:55.403Z,51.8
2023-02-13T09:29:17.991Z,51.8
2023-02-13T09:34:56.733Z,51.7
2023-02-13T09:40:03.279Z,51.7
2023-02-13T09:45:41.131Z,51.6
2023-02-13T09:51:19.139Z,51.6
2023-02-13T09:56:43.737Z,51.6
2023-02-13T10:02:22.003Z,51.5
2023-02-13T10:07:59.318Z,51.4
2023-02-13T10:13:22.528Z,51.4
2023-02-13T10:18:48.887Z,51.4
2023-02-13T10:24:25.770Z,51.3
2023-02-13T10:29:31.917Z,51.3
2023-02-13T10:35:11.401Z,51.3
2023-02-13T10:40:49.690Z,51.3
2023-02-13T10:46:27.731Z,51.2
2023-02-13T10:52:06.660Z,51.1
2023-02-13T10:57:44.076Z,51.1
2023-02-13T11:03:36.559Z,51.1
2023-02-13T11:08:57.996Z,51
2023-02-13T11:14:35.410Z,51
2023-02-13T11:20:14.951Z,50.9
2023-02-13T11:25:51.826Z,50.9
2023-02-13T11:30:58.106Z,50.9
2023-02-13T11:36:36.044Z,50.8
2023-02-13T11:42:13.248Z,50.9
2023-02-13T11:47:51.642Z,51.3
2023-02-13T11:53:27.907Z,51.6
2023-02-13T12:04:10.938Z,52.3
2023-02-13T12:09:33.029Z,52.6
2023-02-13T12:15:09.763Z,53
2023-02-13T12:20:39.991Z,53.3
2023-02-13T12:26:02.881Z,53.6
2023-02-13T12:31:39.923Z,53.8
2023-02-13T12:37:02.293Z,54.1
2023-02-13T12:42:41.934Z,54.3
2023-02-13T12:48:18.971Z,54.5
2023-02-13T12:53:55.427Z,54.7
2023-02-13T12:59:01.717Z,54.9
2023-02-13T13:04:38.794Z,55
2023-02-13T13:10:26.990Z,55.1
2023-02-13T13:16:04.487Z,55.2
2023-02-13T13:21:25.791Z,55.3
2023-02-13T13:27:02.923Z,55.3
2023-02-13T13:32:25.991Z,55.3
2023-02-13T13:37:48.378Z,55.3
2023-02-13T13:43:25.526Z,55.3
2023-02-13T13:48:31.678Z,55.3
2023-02-13T13:53:37.594Z,55.3
2023-02-13T13:59:00.855Z,55.3
2023-02-13T14:04:39.887Z,55.3
2023-02-13T14:10:03.284Z,55.2
2023-02-13T14:15:43.030Z,55.1
2023-02-13T14:21:05.657Z,55.1
2023-02-13T14:26:41.765Z,55.1
2023-02-13T14:32:28.111Z,55.1
2023-02-13T14:37:52.449Z,55
2023-02-13T14:43:14.597Z,54.9
2023-02-13T14:48:52.390Z,54.9
2023-02-13T14:54:29.586Z,54.9
2023-02-13T15:00:06.630Z,54.8
2023-02-13T15:05:44.804Z,54.8
2023-02-13T15:11:07.610Z,54.8
2023-02-13T15:16:45.124Z,54.8
2023-02-13T15:22:23.707Z,54.7
2023-02-13T15:27:30.773Z,54.7
2023-02-13T15:33:30.471Z,54.6
2023-02-13T15:39:09.745Z,54.6
2023-02-13T15:44:32.664Z,54.6
2023-02-13T15:50:10.694Z,54.5
2023-02-13T15:55:49.415Z,54.4
2023-02-13T16:01:27.946Z,54.4
2023-02-13T16:07:18.667Z,54.4
2023-02-13T16:12:56.197Z,54.3
2023-02-13T16:18:33.649Z,54.3
2023-02-13T16:24:10.837Z,54.3
2023-02-13T16:29:34.501Z,54.3
2023-02-13T16:35:12.777Z,54.2
2023-02-13T16:40:50.201Z,54.1
2023-02-13T16:45:56.340Z,54.1
2023-02-13T16:51:35.223Z,54.1
2023-02-13T16:57:13.834Z,54
2023-02-13T17:02:50.219Z,54
2023-02-13T17:08:12.816Z,53.9
2023-02-13T17:13:49.385Z,53.9
2023-02-13T17:19:26.182Z,53.8
2023-02-13T17:24:49.962Z,53.8
2023-02-13T17:30:30.002Z,53.8
2023-02-13T17:36:08.342Z,53.7
2023-02-13T17:41:45.148Z,53.7
2023-02-13T17:47:24.217Z,53.6
2023-02-13T17:53:12.573Z,53.6
2023-02-13T17:58:49.103Z,53.5
2023-02-13T18:04:28.571Z,53.5
2023-02-13T18:09:50.881Z,53.4
2023-02-13T18:15:12.435Z,53.4
2023-02-13T18:20:51.862Z,53.4
2023-02-13T18:26:13.540Z,53.3
2023-02-13T18:31:52.710Z,53.3
2023-02-13T18:37:16.628Z,53.2
2023-02-13T18:42:54.134Z,53.2
2023-02-13T18:48:26.513Z,53.1
2023-02-13T18:54:04.994Z,53.1
2023-02-13T18:59:26.122Z,53.1
2023-02-13T19:05:03.526Z,53
2023-02-13T19:10:41.271Z,52.9
2023-02-13T19:16:18.907Z,52.9
2023-02-13T19:21:40.899Z,52.9
2023-02-13T19:27:03.193Z,52.8
2023-02-13T19:32:10.251Z,52.8
2023-02-13T19:37:59.589Z,52.8
2023-02-13T19:43:37.299Z,52.7
2023-02-13T19:48:44.185Z,52.7
2023-02-13T19:54:08.878Z,52.6
2023-02-13T19:59:47.542Z,52.6
2023-02-13T20:05:26.879Z,52.5
2023-02-13T20:10:49.167Z,52.4
2023-02-13T20:15:56.310Z,52.3
2023-02-13T20:21:18.248Z,52.3
2023-02-13T20:26:57.187Z,52.2
2023-02-13T20:32:11.702Z,52.1
2023-02-13T20:37:35.927Z,52.1
2023-02-13T20:42:59.710Z,52.1
2023-02-13T20:48:23.340Z,52
2023-02-13T21:03:45.755Z,51.9
2023-02-13T21:09:10.827Z,51.8
2023-02-13T21:14:48.812Z,51.8
2023-02-13T21:20:26.600Z,51.8
2023-02-13T21:25:32.992Z,51.7
2023-02-13T21:30:55.627Z,51.6
2023-02-13T21:36:33.458Z,51.6
2023-02-13T21:42:11.539Z,51.6
2023-02-13T21:47:49.446Z,51.5
2023-02-13T21:53:26.498Z,51.4
2023-02-13T21:58:51.301Z,51.4
2023-02-13T22:04:36.143Z,51.4
2023-02-13T22:10:12.633Z,51.3
2023-02-13T22:15:49.877Z,51.3
2023-02-13T22:21:27.792Z,51.2
2023-02-13T22:27:04.972Z,51.1
2023-02-13T22:32:47.810Z,51.1
2023-02-13T22:38:34.427Z,51
2023-02-13T22:44:10.119Z,51
2023-02-13T22:49:47.598Z,50.9
2023-02-13T22:55:25.268Z,50.9
2023-02-13T23:00:31.797Z,50.9
2023-02-13T23:05:54.407Z,50.8
2023-02-13T23:11:32.547Z,50.8
2023-02-13T23:16:55.892Z,50.8
2023-02-13T23:22:18.027Z,50.6
2023-02-13T23:27:39.962Z,50.6
2023-02-13T23:32:47.681Z,50.6
2023-02-13T23:38:09.889Z,50.6
2023-02-13T23:43:32.519Z,50.5
2023-02-13T23:48:39.380Z,50.4
2023-02-13T23:54:16.688Z,50.4
2023-02-13T23:59:54.880Z,50.4
